Ray City, Georgia
Current Conditions -  °F | °C
As of 12:58 AM on Sunday 26 Oct 2014 (Local Time) from KVAD Reporting Station
Clear Clear  
Wind Chill: 53°   Ceiling: Unl
Heat Index: 53°   Visibility: 10mi
Dew Point: 47°   Wind: 0mph
Humidity: 81%   Direction: NA
Pressure: 30"   Gusts: NA
Location:  31.07°N, 83.2°W
Report Text: KVAD 260458Z AUTO 00000KT 10SM CLR 12/08 A3000 RMK AO2 SLP160 T01150084 402600068 $
Loading
Personal Weather Stations






























Interactive Weather Map New forecast layout! Learn more

10-Day Weather Forecast

Advertisements
Track Severe Weather on mobile